sensor_id;sensor_type;location;lat;lon;timestamp;P1;durP1;ratioP1;P2;durP2;ratioP2
40555;SDS011;26250;45.422;11.100;2022-10-17T07:06:01;88.90;;;69.90;;
40555;SDS011;26250;45.422;11.100;2022-10-17T07:08:30;86.80;;;68.97;;
40555;SDS011;26250;45.422;11.100;2022-10-17T07:11:07;101.07;;;71.35;;
40555;SDS011;26250;45.422;11.100;2022-10-17T07:13:38;91.32;;;70.38;;
40555;SDS011;26250;45.422;11.100;2022-10-17T07:16:05;88.93;;;69.22;;
40555;SDS011;26250;45.422;11.100;2022-10-17T07:18:34;105.80;;;70.15;;
40555;SDS011;26250;45.422;11.100;2022-10-17T07:21:01;98.97;;;67.25;;
40555;SDS011;26250;45.422;11.100;2022-10-17T07:23:29;127.80;;;71.18;;
40555;SDS011;26250;45.422;11.100;2022-10-17T07:26:00;94.57;;;69.55;;
40555;SDS011;26250;45.422;11.100;2022-10-17T07:28:28;96.65;;;71.70;;
40555;SDS011;26250;45.422;11.100;2022-10-17T07:31:04;92.90;;;71.95;;
40555;SDS011;26250;45.422;11.100;2022-10-17T07:33:36;113.57;;;73.95;;
40555;SDS011;26250;45.422;11.100;2022-10-17T07:36:03;90.38;;;71.63;;
40555;SDS011;26250;45.422;11.100;2022-10-17T07:38:31;93.18;;;72.18;;
40555;SDS011;26250;45.422;11.100;2022-10-17T07:41:01;96.32;;;69.13;;
40555;SDS011;26250;45.422;11.100;2022-10-17T07:43:30;97.93;;;71.28;;
40555;SDS011;26250;45.422;11.100;2022-10-17T07:46:00;92.63;;;70.45;;
40555;SDS011;26250;45.422;11.100;2022-10-17T07:48:28;89.78;;;67.35;;
40555;SDS011;26250;45.422;11.100;2022-10-17T07:50:55;95.25;;;70.90;;
40555;SDS011;26250;45.422;11.100;2022-10-17T07:53:22;93.75;;;70.63;;
40555;SDS011;26250;45.422;11.100;2022-10-17T07:55:49;99.47;;;70.97;;
40555;SDS011;26250;45.422;11.100;2022-10-17T07:58:16;97.40;;;70.32;;
40555;SDS011;26250;45.422;11.100;2022-10-17T08:00:43;108.95;;;71.32;;
40555;SDS011;26250;45.422;11.100;2022-10-17T08:03:13;120.30;;;71.13;;
40555;SDS011;26250;45.422;11.100;2022-10-17T08:05:40;87.03;;;69.10;;
40555;SDS011;26250;45.422;11.100;2022-10-17T08:08:07;82.05;;;64.60;;
40555;SDS011;26250;45.422;11.100;2022-10-17T08:10:34;89.75;;;64.63;;
40555;SDS011;26250;45.422;11.100;2022-10-17T08:13:02;91.55;;;67.50;;
40555;SDS011;26250;45.422;11.100;2022-10-17T08:15:29;96.88;;;68.13;;
40555;SDS011;26250;45.422;11.100;2022-10-17T08:17:57;102.65;;;66.47;;
40555;SDS011;26250;45.422;11.100;2022-10-17T08:20:24;98.65;;;66.78;;
40555;SDS011;26250;45.422;11.100;2022-10-17T08:22:54;80.82;;;65.38;;
40555;SDS011;26250;45.422;11.100;2022-10-17T08:25:21;91.93;;;66.28;;
40555;SDS011;26250;45.422;11.100;2022-10-17T08:27:49;80.97;;;63.85;;
40555;SDS011;26250;45.422;11.100;2022-10-17T08:30:19;80.80;;;64.05;;
40555;SDS011;26250;45.422;11.100;2022-10-17T08:32:45;94.18;;;67.97;;
40555;SDS011;26250;45.422;11.100;2022-10-17T08:35:12;93.22;;;68.00;;
40555;SDS011;26250;45.422;11.100;2022-10-17T08:37:40;100.65;;;70.45;;
40555;SDS011;26250;45.422;11.100;2022-10-17T08:40:09;100.18;;;69.97;;
40555;SDS011;26250;45.422;11.100;2022-10-17T08:45:31;88.35;;;72.47;;
40555;SDS011;26250;45.422;11.100;2022-10-17T08:53:20;97.90;;;68.28;;
40555;SDS011;26250;45.422;11.100;2022-10-17T08:55:52;106.63;;;72.13;;
40555;SDS011;26250;45.422;11.100;2022-10-17T08:58:21;97.38;;;72.35;;
40555;SDS011;26250;45.422;11.100;2022-10-17T09:05:57;98.63;;;70.65;;
40555;SDS011;26250;45.422;11.100;2022-10-17T09:13:49;83.97;;;66.50;;
40555;SDS011;26250;45.422;11.100;2022-10-17T09:16:29;88.03;;;63.28;;
40555;SDS011;26250;45.422;11.100;2022-10-17T09:19:23;96.85;;;69.13;;
40555;SDS011;26250;45.422;11.100;2022-10-17T09:24:39;99.93;;;71.65;;
40555;SDS011;26250;45.422;11.100;2022-10-17T09:27:23;85.55;;;65.20;;
40555;SDS011;26250;45.422;11.100;2022-10-17T09:29:54;81.10;;;65.65;;
40555;SDS011;26250;45.422;11.100;2022-10-17T09:33:10;83.20;;;66.57;;
40555;SDS011;26250;45.422;11.100;2022-10-17T09:36:02;83.18;;;66.05;;
40555;SDS011;26250;45.422;11.100;2022-10-17T09:38:44;99.07;;;71.00;;
40555;SDS011;26250;45.422;11.100;2022-10-17T09:41:38;93.90;;;76.43;;
40555;SDS011;26250;45.422;11.100;2022-10-17T09:46:38;91.78;;;71.60;;
40555;SDS011;26250;45.422;11.100;2022-10-17T09:49:14;87.88;;;72.10;;
40555;SDS011;26250;45.422;11.100;2022-10-17T09:51:44;92.18;;;73.00;;
40555;SDS011;26250;45.422;11.100;2022-10-17T09:54:23;89.85;;;71.47;;
40555;SDS011;26250;45.422;11.100;2022-10-17T09:59:33;86.53;;;70.35;;
40555;SDS011;26250;45.422;11.100;2022-10-17T10:02:21;98.65;;;73.07;;
40555;SDS011;26250;45.422;11.100;2022-10-17T10:07:38;90.50;;;72.07;;
40555;SDS011;26250;45.422;11.100;2022-10-17T10:10:06;84.03;;;67.72;;
40555;SDS011;26250;45.422;11.100;2022-10-17T10:13:05;91.47;;;72.07;;
40555;SDS011;26250;45.422;11.100;2022-10-17T10:15:42;92.30;;;72.60;;
40555;SDS011;26250;45.422;11.100;2022-10-17T10:23:30;98.35;;;76.18;;
40555;SDS011;26250;45.422;11.100;2022-10-17T10:25:58;97.63;;;81.25;;
40555;SDS011;26250;45.422;11.100;2022-10-17T10:28:29;102.05;;;78.35;;
40555;SDS011;26250;45.422;11.100;2022-10-17T10:31:01;100.38;;;78.15;;
40555;SDS011;26250;45.422;11.100;2022-10-17T10:33:31;109.82;;;80.43;;
40555;SDS011;26250;45.422;11.100;2022-10-17T10:36:06;100.65;;;77.70;;
40555;SDS011;26250;45.422;11.100;2022-10-17T10:38:34;103.07;;;76.30;;
40555;SDS011;26250;45.422;11.100;2022-10-17T10:41:08;95.40;;;75.07;;
40555;SDS011;26250;45.422;11.100;2022-10-17T10:43:37;99.80;;;77.32;;
40555;SDS011;26250;45.422;11.100;2022-10-17T10:46:18;97.18;;;74.65;;
40555;SDS011;26250;45.422;11.100;2022-10-17T10:48:50;105.32;;;73.97;;
40555;SDS011;26250;45.422;11.100;2022-10-17T10:54:01;101.70;;;71.60;;
40555;SDS011;26250;45.422;11.100;2022-10-17T10:56:42;94.03;;;73.70;;
40555;SDS011;26250;45.422;11.100;2022-10-17T11:02:18;86.13;;;71.00;;
40555;SDS011;26250;45.422;11.100;2022-10-17T11:07:39;94.50;;;71.05;;
40555;SDS011;26250;45.422;11.100;2022-10-17T11:15:19;89.15;;;71.10;;
40555;SDS011;26250;45.422;11.100;2022-10-17T11:17:58;98.32;;;69.93;;
40555;SDS011;26250;45.422;11.100;2022-10-17T11:23:15;98.60;;;72.40;;
40555;SDS011;26250;45.422;11.100;2022-10-17T11:26:02;88.60;;;70.68;;
40555;SDS011;26250;45.422;11.100;2022-10-17T11:31:18;84.90;;;69.60;;
40555;SDS011;26250;45.422;11.100;2022-10-17T11:34:08;78.25;;;64.60;;
40555;SDS011;26250;45.422;11.100;2022-10-17T11:36:45;85.13;;;66.57;;
40555;SDS011;26250;45.422;11.100;2022-10-17T11:39:17;85.65;;;67.13;;
40555;SDS011;26250;45.422;11.100;2022-10-17T11:44:39;85.30;;;64.57;;
40555;SDS011;26250;45.422;11.100;2022-10-17T11:53:13;88.40;;;70.43;;
40555;SDS011;26250;45.422;11.100;2022-10-17T11:55:42;78.75;;;67.50;;
40555;SDS011;26250;45.422;11.100;2022-10-17T12:01:21;97.05;;;69.20;;
40555;SDS011;26250;45.422;11.100;2022-10-17T12:09:51;85.22;;;67.10;;
40555;SDS011;26250;45.422;11.100;2022-10-17T12:12:50;84.28;;;60.95;;
40555;SDS011;26250;45.422;11.100;2022-10-17T12:20:33;81.18;;;62.95;;
40555;SDS011;26250;45.422;11.100;2022-10-17T12:23:03;84.68;;;62.15;;
40555;SDS011;26250;45.422;11.100;2022-10-17T12:25:31;81.50;;;59.38;;
40555;SDS011;26250;45.422;11.100;2022-10-17T12:28:02;72.95;;;60.85;;
40555;SDS011;26250;45.422;11.100;2022-10-17T12:30:31;79.13;;;59.55;;
40555;SDS011;26250;45.422;11.100;2022-10-17T12:33:16;70.88;;;56.80;;
40555;SDS011;26250;45.422;11.100;2022-10-17T12:35:48;71.07;;;57.55;;
40555;SDS011;26250;45.422;11.100;2022-10-17T12:38:18;75.65;;;60.53;;
40555;SDS011;26250;45.422;11.100;2022-10-17T12:40:54;86.28;;;61.10;;
40555;SDS011;26250;45.422;11.100;2022-10-17T12:43:31;71.15;;;59.20;;
40555;SDS011;26250;45.422;11.100;2022-10-17T12:46:06;92.35;;;59.78;;
40555;SDS011;26250;45.422;11.100;2022-10-17T12:51:19;75.32;;;60.25;;
40555;SDS011;26250;45.422;11.100;2022-10-17T12:56:41;87.82;;;62.03;;
40555;SDS011;26250;45.422;11.100;2022-10-17T12:59:13;82.78;;;60.42;;
40555;SDS011;26250;45.422;11.100;2022-10-17T13:01:56;73.32;;;59.90;;
40555;SDS011;26250;45.422;11.100;2022-10-17T13:04:24;88.05;;;64.70;;
40555;SDS011;26250;45.422;11.100;2022-10-17T13:06:55;80.80;;;58.05;;
40555;SDS011;26250;45.422;11.100;2022-10-17T13:09:37;75.68;;;58.30;;
40555;SDS011;26250;45.422;11.100;2022-10-17T13:12:11;68.32;;;57.90;;
40555;SDS011;26250;45.422;11.100;2022-10-17T13:14:40;83.63;;;60.65;;
40555;SDS011;26250;45.422;11.100;2022-10-17T13:17:19;79.72;;;61.58;;
40555;SDS011;26250;45.422;11.100;2022-10-17T13:19:50;74.28;;;60.60;;
40555;SDS011;26250;45.422;11.100;2022-10-17T13:24:52;92.45;;;63.13;;
40555;SDS011;26250;45.422;11.100;2022-10-17T13:27:32;74.78;;;59.85;;
40555;SDS011;26250;45.422;11.100;2022-10-17T13:30:20;73.97;;;62.40;;
40555;SDS011;26250;45.422;11.100;2022-10-17T13:32:47;84.57;;;61.70;;
40555;SDS011;26250;45.422;11.100;2022-10-17T13:35:15;79.28;;;59.42;;
40555;SDS011;26250;45.422;11.100;2022-10-17T13:38:10;69.13;;;57.58;;
40555;SDS011;26250;45.422;11.100;2022-10-17T13:40:40;79.75;;;59.42;;
40555;SDS011;26250;45.422;11.100;2022-10-17T13:43:16;79.07;;;56.10;;
40555;SDS011;26250;45.422;11.100;2022-10-17T13:45:47;86.18;;;56.47;;
40555;SDS011;26250;45.422;11.100;2022-10-17T13:48:17;63.33;;;55.30;;
40555;SDS011;26250;45.422;11.100;2022-10-17T13:50:50;70.32;;;56.75;;
40555;SDS011;26250;45.422;11.100;2022-10-17T13:53:24;78.65;;;54.50;;
40555;SDS011;26250;45.422;11.100;2022-10-17T13:55:56;67.78;;;51.88;;
40555;SDS011;26250;45.422;11.100;2022-10-17T14:01:14;71.60;;;54.30;;
40555;SDS011;26250;45.422;11.100;2022-10-17T14:03:42;70.60;;;54.28;;
40555;SDS011;26250;45.422;11.100;2022-10-17T14:06:27;79.65;;;57.85;;
40555;SDS011;26250;45.422;11.100;2022-10-17T14:14:18;76.88;;;53.65;;
40555;SDS011;26250;45.422;11.100;2022-10-17T14:16:47;71.70;;;54.53;;
40555;SDS011;26250;45.422;11.100;2022-10-17T14:19:24;73.47;;;53.47;;
40555;SDS011;26250;45.422;11.100;2022-10-17T14:21:54;62.05;;;53.97;;
40555;SDS011;26250;45.422;11.100;2022-10-17T14:24:40;70.70;;;53.30;;
40555;SDS011;26250;45.422;11.100;2022-10-17T14:30:30;59.55;;;52.72;;
40555;SDS011;26250;45.422;11.100;2022-10-17T14:33:22;69.85;;;56.17;;
40555;SDS011;26250;45.422;11.100;2022-10-17T14:35:54;74.43;;;55.72;;
40555;SDS011;26250;45.422;11.100;2022-10-17T14:38:23;78.80;;;56.15;;
40555;SDS011;26250;45.422;11.100;2022-10-17T14:40:52;83.15;;;58.95;;
40555;SDS011;26250;45.422;11.100;2022-10-17T14:43:53;79.32;;;56.40;;
40555;SDS011;26250;45.422;11.100;2022-10-17T14:46:22;72.80;;;56.58;;
40555;SDS011;26250;45.422;11.100;2022-10-17T14:48:54;76.07;;;57.40;;
40555;SDS011;26250;45.422;11.100;2022-10-17T14:51:29;74.35;;;57.60;;
40555;SDS011;26250;45.422;11.100;2022-10-17T14:54:18;79.00;;;59.83;;
40555;SDS011;26250;45.422;11.100;2022-10-17T14:59:18;82.35;;;55.72;;
40555;SDS011;26250;45.422;11.100;2022-10-17T15:02:09;69.70;;;54.15;;
40555;SDS011;26250;45.422;11.100;2022-10-17T15:04:37;77.78;;;54.53;;
40555;SDS011;26250;45.422;11.100;2022-10-17T15:07:03;71.80;;;54.10;;
40555;SDS011;26250;45.422;11.100;2022-10-17T15:09:30;66.07;;;53.85;;
40555;SDS011;26250;45.422;11.100;2022-10-17T15:12:00;69.15;;;53.47;;
40555;SDS011;26250;45.422;11.100;2022-10-17T15:14:29;79.55;;;56.60;;
40555;SDS011;26250;45.422;11.100;2022-10-17T15:16:56;70.13;;;55.17;;
40555;SDS011;26250;45.422;11.100;2022-10-17T15:19:23;71.43;;;55.08;;
40555;SDS011;26250;45.422;11.100;2022-10-17T15:21:49;68.50;;;53.03;;
40555;SDS011;26250;45.422;11.100;2022-10-17T15:24:16;69.32;;;54.33;;
40555;SDS011;26250;45.422;11.100;2022-10-17T15:26:43;77.90;;;55.50;;
40555;SDS011;26250;45.422;11.100;2022-10-17T15:29:13;83.55;;;52.67;;
40555;SDS011;26250;45.422;11.100;2022-10-17T15:31:41;60.85;;;53.05;;
40555;SDS011;26250;45.422;11.100;2022-10-17T15:34:08;74.50;;;53.72;;
40555;SDS011;26250;45.422;11.100;2022-10-17T15:36:37;72.22;;;54.72;;
40555;SDS011;26250;45.422;11.100;2022-10-17T15:39:06;87.97;;;54.88;;
40555;SDS011;26250;45.422;11.100;2022-10-17T15:41:34;74.07;;;52.85;;
40555;SDS011;26250;45.422;11.100;2022-10-17T15:44:02;81.63;;;53.90;;
40555;SDS011;26250;45.422;11.100;2022-10-17T15:46:33;66.18;;;52.95;;
40555;SDS011;26250;45.422;11.100;2022-10-17T15:49:01;74.00;;;51.97;;
40555;SDS011;26250;45.422;11.100;2022-10-17T15:51:35;71.55;;;52.15;;
40555;SDS011;26250;45.422;11.100;2022-10-17T15:54:02;64.45;;;52.13;;
40555;SDS011;26250;45.422;11.100;2022-10-17T15:56:31;76.75;;;51.65;;
40555;SDS011;26250;45.422;11.100;2022-10-17T15:59:05;67.85;;;53.85;;
40555;SDS011;26250;45.422;11.100;2022-10-17T16:01:38;67.45;;;52.05;;
40555;SDS011;26250;45.422;11.100;2022-10-17T16:04:07;68.10;;;51.72;;
40555;SDS011;26250;45.422;11.100;2022-10-17T16:06:38;72.10;;;54.85;;
40555;SDS011;26250;45.422;11.100;2022-10-17T16:09:04;81.50;;;51.90;;
40555;SDS011;26250;45.422;11.100;2022-10-17T16:14:08;69.18;;;48.28;;
40555;SDS011;26250;45.422;11.100;2022-10-17T16:16:37;87.00;;;50.88;;
40555;SDS011;26250;45.422;11.100;2022-10-17T16:19:04;78.03;;;49.40;;
40555;SDS011;26250;45.422;11.100;2022-10-17T16:21:32;68.00;;;49.30;;
40555;SDS011;26250;45.422;11.100;2022-10-17T16:24:02;71.90;;;47.72;;
40555;SDS011;26250;45.422;11.100;2022-10-17T16:26:30;66.88;;;47.63;;
40555;SDS011;26250;45.422;11.100;2022-10-17T16:28:57;75.22;;;47.67;;
40555;SDS011;26250;45.422;11.100;2022-10-17T16:31:32;65.70;;;46.35;;
40555;SDS011;26250;45.422;11.100;2022-10-17T16:34:01;59.75;;;46.83;;
40555;SDS011;26250;45.422;11.100;2022-10-17T16:36:29;69.00;;;45.97;;
40555;SDS011;26250;45.422;11.100;2022-10-17T16:38:56;63.95;;;47.55;;
40555;SDS011;26250;45.422;11.100;2022-10-17T16:41:26;64.70;;;46.88;;
40555;SDS011;26250;45.422;11.100;2022-10-17T16:43:56;62.85;;;46.83;;
40555;SDS011;26250;45.422;11.100;2022-10-17T16:46:25;60.15;;;46.33;;
40555;SDS011;26250;45.422;11.100;2022-10-17T16:48:53;61.78;;;46.95;;
40555;SDS011;26250;45.422;11.100;2022-10-17T16:51:20;73.85;;;48.05;;
40555;SDS011;26250;45.422;11.100;2022-10-17T16:53:48;76.38;;;48.72;;
40555;SDS011;26250;45.422;11.100;2022-10-17T16:56:19;63.58;;;47.47;;
40555;SDS011;26250;45.422;11.100;2022-10-17T16:58:47;64.63;;;48.08;;
40555;SDS011;26250;45.422;11.100;2022-10-17T17:01:16;66.60;;;46.22;;
40555;SDS011;26250;45.422;11.100;2022-10-17T17:03:45;84.53;;;49.67;;
40555;SDS011;26250;45.422;11.100;2022-10-17T17:06:17;55.70;;;47.33;;
40555;SDS011;26250;45.422;11.100;2022-10-17T17:08:46;62.05;;;47.45;;
40555;SDS011;26250;45.422;11.100;2022-10-17T17:11:14;59.80;;;48.67;;
40555;SDS011;26250;45.422;11.100;2022-10-17T17:13:42;65.78;;;47.13;;
40555;SDS011;26250;45.422;11.100;2022-10-17T17:16:10;69.30;;;49.33;;
40555;SDS011;26250;45.422;11.100;2022-10-17T17:18:42;63.92;;;46.97;;
40555;SDS011;26250;45.422;11.100;2022-10-17T17:21:11;57.83;;;47.22;;
40555;SDS011;26250;45.422;11.100;2022-10-17T17:23:39;68.10;;;50.30;;
40555;SDS011;26250;45.422;11.100;2022-10-17T17:26:09;61.35;;;45.97;;
40555;SDS011;26250;45.422;11.100;2022-10-17T17:28:41;78.10;;;48.80;;
40555;SDS011;26250;45.422;11.100;2022-10-17T17:31:09;63.47;;;48.60;;
40555;SDS011;26250;45.422;11.100;2022-10-17T17:33:39;70.57;;;47.00;;
40555;SDS011;26250;45.422;11.100;2022-10-17T17:36:07;63.20;;;45.55;;
40555;SDS011;26250;45.422;11.100;2022-10-17T17:38:37;55.42;;;45.78;;
40555;SDS011;26250;45.422;11.100;2022-10-17T17:41:09;61.50;;;47.83;;
40555;SDS011;26250;45.422;11.100;2022-10-17T17:43:37;61.42;;;50.10;;
40555;SDS011;26250;45.422;11.100;2022-10-17T17:46:08;67.70;;;51.28;;
40555;SDS011;26250;45.422;11.100;2022-10-17T17:48:35;74.72;;;49.22;;
40555;SDS011;26250;45.422;11.100;2022-10-17T17:51:06;72.22;;;49.42;;
40555;SDS011;26250;45.422;11.100;2022-10-17T17:53:34;101.65;;;53.78;;
40555;SDS011;26250;45.422;11.100;2022-10-17T17:56:05;68.05;;;51.03;;
40555;SDS011;26250;45.422;11.100;2022-10-17T17:58:34;64.53;;;52.22;;
40555;SDS011;26250;45.422;11.100;2022-10-17T18:01:08;79.20;;;51.55;;
40555;SDS011;26250;45.422;11.100;2022-10-17T18:03:40;73.05;;;51.08;;
40555;SDS011;26250;45.422;11.100;2022-10-17T18:06:07;62.40;;;47.50;;
40555;SDS011;26250;45.422;11.100;2022-10-17T18:08:34;60.72;;;47.20;;
40555;SDS011;26250;45.422;11.100;2022-10-17T18:11:01;68.97;;;55.50;;
40555;SDS011;26250;45.422;11.100;2022-10-17T18:13:29;61.90;;;47.72;;
40555;SDS011;26250;45.422;11.100;2022-10-17T18:15:57;63.05;;;48.47;;
40555;SDS011;26250;45.422;11.100;2022-10-17T18:18:26;58.33;;;48.30;;
40555;SDS011;26250;45.422;11.100;2022-10-17T18:20:54;75.85;;;50.90;;
40555;SDS011;26250;45.422;11.100;2022-10-17T18:23:21;78.43;;;51.42;;
40555;SDS011;26250;45.422;11.100;2022-10-17T18:26:06;62.47;;;50.92;;
40555;SDS011;26250;45.422;11.100;2022-10-17T18:28:34;65.45;;;53.65;;
40555;SDS011;26250;45.422;11.100;2022-10-17T18:31:06;68.63;;;53.33;;
40555;SDS011;26250;45.422;11.100;2022-10-17T18:33:34;73.05;;;55.50;;
40555;SDS011;26250;45.422;11.100;2022-10-17T18:36:09;70.38;;;51.67;;
40555;SDS011;26250;45.422;11.100;2022-10-17T18:38:37;69.97;;;55.65;;
40555;SDS011;26250;45.422;11.100;2022-10-17T18:41:08;69.20;;;56.42;;
40555;SDS011;26250;45.422;11.100;2022-10-17T18:43:38;69.35;;;53.72;;
40555;SDS011;26250;45.422;11.100;2022-10-17T18:46:07;69.93;;;56.10;;
40555;SDS011;26250;45.422;11.100;2022-10-17T18:48:40;82.05;;;54.22;;
40555;SDS011;26250;45.422;11.100;2022-10-17T18:51:09;71.90;;;52.67;;
40555;SDS011;26250;45.422;11.100;2022-10-17T18:53:38;86.18;;;63.50;;
40555;SDS011;26250;45.422;11.100;2022-10-17T18:56:06;65.13;;;55.03;;
40555;SDS011;26250;45.422;11.100;2022-10-17T18:58:33;75.65;;;52.15;;
40555;SDS011;26250;45.422;11.100;2022-10-17T19:01:02;62.55;;;47.03;;
40555;SDS011;26250;45.422;11.100;2022-10-17T19:03:31;76.50;;;49.92;;
40555;SDS011;26250;45.422;11.100;2022-10-17T19:06:01;66.72;;;50.55;;
40555;SDS011;26250;45.422;11.100;2022-10-17T19:08:29;66.72;;;51.40;;
40555;SDS011;26250;45.422;11.100;2022-10-17T19:10:56;67.90;;;50.72;;
40555;SDS011;26250;45.422;11.100;2022-10-17T19:13:23;65.60;;;51.95;;
40555;SDS011;26250;45.422;11.100;2022-10-17T19:15:49;67.57;;;51.95;;
40555;SDS011;26250;45.422;11.100;2022-10-17T19:18:16;74.55;;;53.53;;
40555;SDS011;26250;45.422;11.100;2022-10-17T19:20:43;70.80;;;57.30;;
40555;SDS011;26250;45.422;11.100;2022-10-17T19:23:11;57.78;;;48.65;;
40555;SDS011;26250;45.422;11.100;2022-10-17T19:25:39;65.20;;;51.58;;
40555;SDS011;26250;45.422;11.100;2022-10-17T19:28:06;59.53;;;48.47;;
40555;SDS011;26250;45.422;11.100;2022-10-17T19:30:33;65.90;;;51.85;;
40555;SDS011;26250;45.422;11.100;2022-10-17T19:33:00;91.20;;;56.67;;
40555;SDS011;26250;45.422;11.100;2022-10-17T19:35:27;57.95;;;47.20;;
40555;SDS011;26250;45.422;11.100;2022-10-17T19:37:54;66.45;;;49.10;;
40555;SDS011;26250;45.422;11.100;2022-10-17T19:40:21;61.97;;;49.70;;
40555;SDS011;26250;45.422;11.100;2022-10-17T19:42:48;60.00;;;51.78;;
40555;SDS011;26250;45.422;11.100;2022-10-17T19:45:15;60.80;;;52.13;;
40555;SDS011;26250;45.422;11.100;2022-10-17T19:47:42;76.25;;;52.80;;
40555;SDS011;26250;45.422;11.100;2022-10-17T19:50:09;70.43;;;55.50;;
40555;SDS011;26250;45.422;11.100;2022-10-17T19:52:37;75.53;;;56.13;;
40555;SDS011;26250;45.422;11.100;2022-10-17T19:55:04;70.30;;;53.63;;
40555;SDS011;26250;45.422;11.100;2022-10-17T19:57:31;72.35;;;56.22;;
40555;SDS011;26250;45.422;11.100;2022-10-17T19:59:59;73.07;;;55.13;;
40555;SDS011;26250;45.422;11.100;2022-10-17T20:02:36;74.88;;;52.95;;
40555;SDS011;26250;45.422;11.100;2022-10-17T20:05:03;78.10;;;56.85;;
40555;SDS011;26250;45.422;11.100;2022-10-17T20:07:48;75.35;;;55.75;;
40555;SDS011;26250;45.422;11.100;2022-10-17T20:10:15;72.30;;;55.72;;
40555;SDS011;26250;45.422;11.100;2022-10-17T20:12:44;58.92;;;48.55;;
40555;SDS011;26250;45.422;11.100;2022-10-17T20:15:14;61.53;;;50.28;;
40555;SDS011;26250;45.422;11.100;2022-10-17T20:17:40;64.65;;;53.38;;
40555;SDS011;26250;45.422;11.100;2022-10-17T20:20:07;64.80;;;50.15;;
40555;SDS011;26250;45.422;11.100;2022-10-17T20:22:35;62.72;;;53.45;;
40555;SDS011;26250;45.422;11.100;2022-10-17T20:25:02;62.15;;;51.00;;
40555;SDS011;26250;45.422;11.100;2022-10-17T20:27:29;58.38;;;48.63;;
40555;SDS011;26250;45.422;11.100;2022-10-17T20:29:56;66.25;;;51.40;;
40555;SDS011;26250;45.422;11.100;2022-10-17T20:32:27;73.65;;;49.17;;
40555;SDS011;26250;45.422;11.100;2022-10-17T20:34:56;62.90;;;52.35;;
40555;SDS011;26250;45.422;11.100;2022-10-17T20:37:23;64.40;;;52.00;;
40555;SDS011;26250;45.422;11.100;2022-10-17T20:39:50;62.03;;;51.83;;
40555;SDS011;26250;45.422;11.100;2022-10-17T20:42:37;68.95;;;52.65;;
40555;SDS011;26250;45.422;11.100;2022-10-17T20:45:04;55.10;;;43.67;;
40555;SDS011;26250;45.422;11.100;2022-10-17T20:47:32;52.97;;;45.85;;
40555;SDS011;26250;45.422;11.100;2022-10-17T20:50:12;51.53;;;45.95;;
40555;SDS011;26250;45.422;11.100;2022-10-17T20:52:39;58.83;;;45.13;;
